sensor_id;sensor_type;location;lat;lon;timestamp;P1;durP1;ratioP1;P2;durP2;ratioP2
58954;SDS011;45815;52.334;5.024;2023-12-29T00:01:23;17.23;;;2.97;;
58954;SDS011;45815;52.334;5.024;2023-12-29T00:03:49;14.80;;;3.10;;
58954;SDS011;45815;52.334;5.024;2023-12-29T00:06:14;20.38;;;3.17;;
58954;SDS011;45815;52.334;5.024;2023-12-29T00:08:40;12.73;;;2.90;;
58954;SDS011;45815;52.334;5.024;2023-12-29T00:11:05;20.23;;;3.50;;
58954;SDS011;45815;52.334;5.024;2023-12-29T00:13:30;12.55;;;2.63;;
58954;SDS011;45815;52.334;5.024;2023-12-29T00:15:56;14.60;;;2.90;;
58954;SDS011;45815;52.334;5.024;2023-12-29T00:18:21;12.45;;;3.65;;
58954;SDS011;45815;52.334;5.024;2023-12-29T00:20:47;14.23;;;3.83;;
58954;SDS011;45815;52.334;5.024;2023-12-29T00:23:13;15.27;;;3.22;;
58954;SDS011;45815;52.334;5.024;2023-12-29T00:25:38;17.30;;;2.97;;
58954;SDS011;45815;52.334;5.024;2023-12-29T00:28:04;17.60;;;3.13;;
58954;SDS011;45815;52.334;5.024;2023-12-29T00:30:30;10.63;;;3.05;;
58954;SDS011;45815;52.334;5.024;2023-12-29T00:32:56;14.25;;;2.88;;
58954;SDS011;45815;52.334;5.024;2023-12-29T00:35:21;11.02;;;3.13;;
58954;SDS011;45815;52.334;5.024;2023-12-29T00:37:47;15.20;;;3.28;;
58954;SDS011;45815;52.334;5.024;2023-12-29T00:40:12;16.25;;;3.88;;
58954;SDS011;45815;52.334;5.024;2023-12-29T00:42:38;11.63;;;3.20;;
58954;SDS011;45815;52.334;5.024;2023-12-29T00:45:04;13.65;;;4.25;;
58954;SDS011;45815;52.334;5.024;2023-12-29T00:47:30;17.88;;;2.92;;
58954;SDS011;45815;52.334;5.024;2023-12-29T00:49:55;11.77;;;2.60;;
58954;SDS011;45815;52.334;5.024;2023-12-29T00:52:21;19.02;;;3.60;;
58954;SDS011;45815;52.334;5.024;2023-12-29T00:54:46;15.27;;;3.35;;
58954;SDS011;45815;52.334;5.024;2023-12-29T00:57:12;15.35;;;3.55;;
58954;SDS011;45815;52.334;5.024;2023-12-29T00:59:37;19.27;;;3.08;;
58954;SDS011;45815;52.334;5.024;2023-12-29T01:02:06;21.77;;;3.92;;
58954;SDS011;45815;52.334;5.024;2023-12-29T01:04:33;11.68;;;3.25;;
58954;SDS011;45815;52.334;5.024;2023-12-29T01:06:58;13.18;;;3.20;;
58954;SDS011;45815;52.334;5.024;2023-12-29T01:09:24;16.40;;;3.35;;
58954;SDS011;45815;52.334;5.024;2023-12-29T01:11:51;25.98;;;4.65;;
58954;SDS011;45815;52.334;5.024;2023-12-29T01:14:16;15.52;;;3.70;;
58954;SDS011;45815;52.334;5.024;2023-12-29T01:16:42;16.55;;;3.83;;
58954;SDS011;45815;52.334;5.024;2023-12-29T01:19:09;19.63;;;4.30;;
58954;SDS011;45815;52.334;5.024;2023-12-29T01:21:37;17.50;;;3.10;;
58954;SDS011;45815;52.334;5.024;2023-12-29T01:24:03;14.30;;;3.08;;
58954;SDS011;45815;52.334;5.024;2023-12-29T01:26:29;11.95;;;2.65;;
58954;SDS011;45815;52.334;5.024;2023-12-29T01:28:55;11.70;;;2.60;;
58954;SDS011;45815;52.334;5.024;2023-12-29T01:31:20;14.50;;;3.13;;
58954;SDS011;45815;52.334;5.024;2023-12-29T01:33:46;14.57;;;2.17;;
58954;SDS011;45815;52.334;5.024;2023-12-29T01:36:18;19.30;;;3.13;;
58954;SDS011;45815;52.334;5.024;2023-12-29T01:38:44;18.40;;;3.33;;
58954;SDS011;45815;52.334;5.024;2023-12-29T01:41:09;13.35;;;3.30;;
58954;SDS011;45815;52.334;5.024;2023-12-29T01:43:34;14.18;;;3.30;;
58954;SDS011;45815;52.334;5.024;2023-12-29T01:46:00;14.52;;;3.50;;
58954;SDS011;45815;52.334;5.024;2023-12-29T01:48:25;16.40;;;3.30;;
58954;SDS011;45815;52.334;5.024;2023-12-29T01:50:52;14.18;;;3.47;;
58954;SDS011;45815;52.334;5.024;2023-12-29T01:53:18;16.42;;;3.90;;
58954;SDS011;45815;52.334;5.024;2023-12-29T01:55:44;16.85;;;3.10;;
58954;SDS011;45815;52.334;5.024;2023-12-29T01:58:10;14.35;;;3.33;;
58954;SDS011;45815;52.334;5.024;2023-12-29T02:00:36;13.35;;;3.67;;
58954;SDS011;45815;52.334;5.024;2023-12-29T02:03:02;12.93;;;4.13;;
58954;SDS011;45815;52.334;5.024;2023-12-29T02:05:28;15.23;;;4.10;;
58954;SDS011;45815;52.334;5.024;2023-12-29T02:07:56;15.60;;;4.30;;
58954;SDS011;45815;52.334;5.024;2023-12-29T02:10:21;13.65;;;3.95;;
58954;SDS011;45815;52.334;5.024;2023-12-29T02:12:48;18.23;;;5.18;;
58954;SDS011;45815;52.334;5.024;2023-12-29T02:15:19;12.45;;;3.40;;
58954;SDS011;45815;52.334;5.024;2023-12-29T02:17:46;14.23;;;3.85;;
58954;SDS011;45815;52.334;5.024;2023-12-29T02:20:16;13.93;;;3.90;;
58954;SDS011;45815;52.334;5.024;2023-12-29T02:22:41;17.65;;;3.53;;
58954;SDS011;45815;52.334;5.024;2023-12-29T02:25:07;13.93;;;4.30;;
58954;SDS011;45815;52.334;5.024;2023-12-29T02:30:33;15.13;;;3.10;;
58954;SDS011;45815;52.334;5.024;2023-12-29T02:33:05;16.08;;;3.53;;
58954;SDS011;45815;52.334;5.024;2023-12-29T02:35:35;18.53;;;3.73;;
58954;SDS011;45815;52.334;5.024;2023-12-29T02:38:04;20.55;;;3.28;;
58954;SDS011;45815;52.334;5.024;2023-12-29T02:40:30;18.45;;;3.38;;
58954;SDS011;45815;52.334;5.024;2023-12-29T02:42:55;17.35;;;3.70;;
58954;SDS011;45815;52.334;5.024;2023-12-29T02:45:21;15.68;;;3.25;;
58954;SDS011;45815;52.334;5.024;2023-12-29T02:47:46;18.02;;;3.97;;
58954;SDS011;45815;52.334;5.024;2023-12-29T02:50:14;19.08;;;3.28;;
58954;SDS011;45815;52.334;5.024;2023-12-29T02:52:39;16.95;;;3.13;;
58954;SDS011;45815;52.334;5.024;2023-12-29T02:55:05;15.75;;;2.92;;
58954;SDS011;45815;52.334;5.024;2023-12-29T02:57:30;14.80;;;3.70;;
58954;SDS011;45815;52.334;5.024;2023-12-29T02:59:56;14.65;;;3.55;;
58954;SDS011;45815;52.334;5.024;2023-12-29T03:02:22;12.45;;;2.60;;
58954;SDS011;45815;52.334;5.024;2023-12-29T03:04:48;14.05;;;3.35;;
58954;SDS011;45815;52.334;5.024;2023-12-29T03:07:13;17.73;;;2.85;;
58954;SDS011;45815;52.334;5.024;2023-12-29T03:09:39;16.90;;;3.53;;
58954;SDS011;45815;52.334;5.024;2023-12-29T03:12:04;15.50;;;3.17;;
58954;SDS011;45815;52.334;5.024;2023-12-29T03:14:32;14.60;;;2.88;;
58954;SDS011;45815;52.334;5.024;2023-12-29T03:16:58;20.55;;;3.63;;
58954;SDS011;45815;52.334;5.024;2023-12-29T03:19:23;17.85;;;3.67;;
58954;SDS011;45815;52.334;5.024;2023-12-29T03:21:49;23.27;;;3.53;;
58954;SDS011;45815;52.334;5.024;2023-12-29T03:24:15;21.70;;;2.88;;
58954;SDS011;45815;52.334;5.024;2023-12-29T03:26:40;21.30;;;4.00;;
58954;SDS011;45815;52.334;5.024;2023-12-29T03:29:06;27.35;;;4.93;;
58954;SDS011;45815;52.334;5.024;2023-12-29T03:31:31;30.65;;;4.47;;
58954;SDS011;45815;52.334;5.024;2023-12-29T03:33:57;24.50;;;3.88;;
58954;SDS011;45815;52.334;5.024;2023-12-29T03:36:22;22.55;;;3.58;;
58954;SDS011;45815;52.334;5.024;2023-12-29T03:38:48;20.73;;;3.83;;
58954;SDS011;45815;52.334;5.024;2023-12-29T03:41:13;18.95;;;3.45;;
58954;SDS011;45815;52.334;5.024;2023-12-29T03:43:39;24.05;;;3.83;;
58954;SDS011;45815;52.334;5.024;2023-12-29T03:46:14;17.52;;;3.22;;
58954;SDS011;45815;52.334;5.024;2023-12-29T03:48:43;22.90;;;4.05;;
58954;SDS011;45815;52.334;5.024;2023-12-29T03:51:08;16.60;;;3.15;;
58954;SDS011;45815;52.334;5.024;2023-12-29T03:53:34;30.35;;;4.32;;
58954;SDS011;45815;52.334;5.024;2023-12-29T03:56:02;22.33;;;3.97;;
58954;SDS011;45815;52.334;5.024;2023-12-29T03:58:30;26.67;;;4.53;;
58954;SDS011;45815;52.334;5.024;2023-12-29T04:00:55;20.60;;;3.38;;
58954;SDS011;45815;52.334;5.024;2023-12-29T04:03:21;15.43;;;4.05;;
58954;SDS011;45815;52.334;5.024;2023-12-29T04:05:46;24.00;;;3.38;;
58954;SDS011;45815;52.334;5.024;2023-12-29T04:08:11;17.35;;;3.63;;
58954;SDS011;45815;52.334;5.024;2023-12-29T04:10:38;20.38;;;4.07;;
58954;SDS011;45815;52.334;5.024;2023-12-29T04:13:03;23.63;;;4.10;;
58954;SDS011;45815;52.334;5.024;2023-12-29T04:15:29;19.60;;;3.78;;
58954;SDS011;45815;52.334;5.024;2023-12-29T04:17:54;18.65;;;3.17;;
58954;SDS011;45815;52.334;5.024;2023-12-29T04:20:19;23.35;;;3.78;;
58954;SDS011;45815;52.334;5.024;2023-12-29T04:22:46;21.35;;;3.42;;
58954;SDS011;45815;52.334;5.024;2023-12-29T04:25:11;22.48;;;3.92;;
58954;SDS011;45815;52.334;5.024;2023-12-29T04:27:37;23.67;;;4.72;;
58954;SDS011;45815;52.334;5.024;2023-12-29T04:30:02;17.17;;;3.30;;
58954;SDS011;45815;52.334;5.024;2023-12-29T04:32:29;18.73;;;3.58;;
58954;SDS011;45815;52.334;5.024;2023-12-29T04:34:54;16.10;;;3.22;;
58954;SDS011;45815;52.334;5.024;2023-12-29T04:37:20;23.30;;;3.50;;
58954;SDS011;45815;52.334;5.024;2023-12-29T04:39:46;20.25;;;4.07;;
58954;SDS011;45815;52.334;5.024;2023-12-29T04:42:11;25.40;;;4.43;;
58954;SDS011;45815;52.334;5.024;2023-12-29T04:44:37;22.90;;;4.03;;
58954;SDS011;45815;52.334;5.024;2023-12-29T04:47:02;28.30;;;4.68;;
58954;SDS011;45815;52.334;5.024;2023-12-29T04:49:27;25.77;;;4.35;;
58954;SDS011;45815;52.334;5.024;2023-12-29T04:51:53;32.30;;;4.38;;
58954;SDS011;45815;52.334;5.024;2023-12-29T04:54:18;28.25;;;5.43;;
58954;SDS011;45815;52.334;5.024;2023-12-29T04:56:44;21.48;;;4.50;;
58954;SDS011;45815;52.334;5.024;2023-12-29T04:59:09;21.90;;;4.85;;
58954;SDS011;45815;52.334;5.024;2023-12-29T05:01:34;26.70;;;4.90;;
58954;SDS011;45815;52.334;5.024;2023-12-29T05:04:00;27.08;;;4.30;;
58954;SDS011;45815;52.334;5.024;2023-12-29T05:06:25;25.88;;;5.07;;
58954;SDS011;45815;52.334;5.024;2023-12-29T05:08:50;20.95;;;4.68;;
58954;SDS011;45815;52.334;5.024;2023-12-29T05:11:16;29.80;;;5.20;;
58954;SDS011;45815;52.334;5.024;2023-12-29T05:13:41;31.40;;;5.93;;
58954;SDS011;45815;52.334;5.024;2023-12-29T05:16:07;27.45;;;4.60;;
58954;SDS011;45815;52.334;5.024;2023-12-29T05:18:32;28.83;;;4.68;;
58954;SDS011;45815;52.334;5.024;2023-12-29T05:20:57;24.27;;;4.53;;
58954;SDS011;45815;52.334;5.024;2023-12-29T05:23:23;22.90;;;5.32;;
58954;SDS011;45815;52.334;5.024;2023-12-29T05:25:48;28.73;;;4.85;;
58954;SDS011;45815;52.334;5.024;2023-12-29T05:28:14;34.13;;;5.00;;
58954;SDS011;45815;52.334;5.024;2023-12-29T05:30:39;30.55;;;6.15;;
58954;SDS011;45815;52.334;5.024;2023-12-29T05:33:04;24.75;;;4.40;;
58954;SDS011;45815;52.334;5.024;2023-12-29T05:35:30;32.58;;;4.78;;
58954;SDS011;45815;52.334;5.024;2023-12-29T05:37:55;34.92;;;5.55;;
58954;SDS011;45815;52.334;5.024;2023-12-29T05:40:21;26.60;;;5.20;;
58954;SDS011;45815;52.334;5.024;2023-12-29T05:42:46;33.17;;;5.18;;
58954;SDS011;45815;52.334;5.024;2023-12-29T05:45:11;22.95;;;4.55;;
58954;SDS011;45815;52.334;5.024;2023-12-29T05:47:37;25.98;;;5.05;;
58954;SDS011;45815;52.334;5.024;2023-12-29T05:50:02;32.78;;;4.60;;
58954;SDS011;45815;52.334;5.024;2023-12-29T05:52:28;24.48;;;4.80;;
58954;SDS011;45815;52.334;5.024;2023-12-29T05:54:54;29.05;;;5.10;;
58954;SDS011;45815;52.334;5.024;2023-12-29T05:57:19;32.08;;;5.68;;
58954;SDS011;45815;52.334;5.024;2023-12-29T05:59:45;28.73;;;5.13;;
58954;SDS011;45815;52.334;5.024;2023-12-29T06:02:10;27.23;;;6.10;;
58954;SDS011;45815;52.334;5.024;2023-12-29T06:04:35;34.92;;;5.68;;
58954;SDS011;45815;52.334;5.024;2023-12-29T06:07:01;28.33;;;4.88;;
58954;SDS011;45815;52.334;5.024;2023-12-29T06:09:26;30.25;;;5.18;;
58954;SDS011;45815;52.334;5.024;2023-12-29T06:11:52;22.33;;;4.32;;
58954;SDS011;45815;52.334;5.024;2023-12-29T06:14:17;31.00;;;4.47;;
58954;SDS011;45815;52.334;5.024;2023-12-29T06:16:43;22.85;;;4.22;;
58954;SDS011;45815;52.334;5.024;2023-12-29T06:19:08;24.13;;;4.45;;
58954;SDS011;45815;52.334;5.024;2023-12-29T06:21:40;23.73;;;4.47;;
58954;SDS011;45815;52.334;5.024;2023-12-29T06:24:09;27.98;;;5.20;;
58954;SDS011;45815;52.334;5.024;2023-12-29T06:26:37;25.77;;;5.15;;
58954;SDS011;45815;52.334;5.024;2023-12-29T06:29:08;32.13;;;5.95;;
58954;SDS011;45815;52.334;5.024;2023-12-29T06:31:34;25.83;;;5.10;;
58954;SDS011;45815;52.334;5.024;2023-12-29T06:33:59;30.35;;;4.40;;
58954;SDS011;45815;52.334;5.024;2023-12-29T06:36:25;22.60;;;3.63;;
58954;SDS011;45815;52.334;5.024;2023-12-29T06:38:51;24.33;;;5.13;;
58954;SDS011;45815;52.334;5.024;2023-12-29T06:41:18;22.70;;;4.00;;
58954;SDS011;45815;52.334;5.024;2023-12-29T06:43:44;23.73;;;3.75;;
58954;SDS011;45815;52.334;5.024;2023-12-29T06:46:10;20.13;;;3.72;;
58954;SDS011;45815;52.334;5.024;2023-12-29T06:48:37;20.40;;;4.72;;
58954;SDS011;45815;52.334;5.024;2023-12-29T06:51:03;23.73;;;3.90;;
58954;SDS011;45815;52.334;5.024;2023-12-29T06:53:28;22.10;;;3.33;;
58954;SDS011;45815;52.334;5.024;2023-12-29T06:55:54;16.35;;;3.47;;
58954;SDS011;45815;52.334;5.024;2023-12-29T06:58:19;22.20;;;3.75;;
58954;SDS011;45815;52.334;5.024;2023-12-29T07:00:45;20.33;;;4.53;;
58954;SDS011;45815;52.334;5.024;2023-12-29T07:03:13;20.25;;;3.58;;
58954;SDS011;45815;52.334;5.024;2023-12-29T07:05:39;21.17;;;4.10;;
58954;SDS011;45815;52.334;5.024;2023-12-29T07:08:05;24.20;;;4.00;;
58954;SDS011;45815;52.334;5.024;2023-12-29T07:10:30;22.58;;;4.07;;
58954;SDS011;45815;52.334;5.024;2023-12-29T07:12:56;18.20;;;3.08;;
58954;SDS011;45815;52.334;5.024;2023-12-29T07:15:22;14.30;;;3.50;;
58954;SDS011;45815;52.334;5.024;2023-12-29T07:17:47;25.48;;;3.42;;
58954;SDS011;45815;52.334;5.024;2023-12-29T07:20:13;20.52;;;3.45;;
58954;SDS011;45815;52.334;5.024;2023-12-29T07:22:38;21.98;;;3.40;;
58954;SDS011;45815;52.334;5.024;2023-12-29T07:25:04;19.30;;;3.60;;
58954;SDS011;45815;52.334;5.024;2023-12-29T07:27:30;26.00;;;4.07;;
58954;SDS011;45815;52.334;5.024;2023-12-29T07:29:55;19.35;;;3.50;;
58954;SDS011;45815;52.334;5.024;2023-12-29T07:32:21;15.85;;;3.88;;
58954;SDS011;45815;52.334;5.024;2023-12-29T07:34:46;21.20;;;4.28;;
58954;SDS011;45815;52.334;5.024;2023-12-29T07:37:12;18.65;;;3.28;;
58954;SDS011;45815;52.334;5.024;2023-12-29T07:39:38;21.63;;;3.70;;
58954;SDS011;45815;52.334;5.024;2023-12-29T07:42:03;18.52;;;2.97;;
58954;SDS011;45815;52.334;5.024;2023-12-29T07:44:30;19.20;;;3.35;;
58954;SDS011;45815;52.334;5.024;2023-12-29T07:46:59;19.40;;;4.30;;
58954;SDS011;45815;52.334;5.024;2023-12-29T07:49:24;14.93;;;2.78;;
58954;SDS011;45815;52.334;5.024;2023-12-29T07:51:50;10.60;;;2.42;;
58954;SDS011;45815;52.334;5.024;2023-12-29T07:54:16;16.35;;;3.65;;
58954;SDS011;45815;52.334;5.024;2023-12-29T07:56:41;19.35;;;3.08;;
58954;SDS011;45815;52.334;5.024;2023-12-29T07:59:07;18.15;;;3.08;;
58954;SDS011;45815;52.334;5.024;2023-12-29T08:01:33;17.67;;;3.00;;
58954;SDS011;45815;52.334;5.024;2023-12-29T08:03:59;13.75;;;2.80;;
58954;SDS011;45815;52.334;5.024;2023-12-29T08:06:24;15.40;;;3.33;;
58954;SDS011;45815;52.334;5.024;2023-12-29T08:08:49;17.88;;;3.28;;
58954;SDS011;45815;52.334;5.024;2023-12-29T08:11:15;17.40;;;2.83;;
58954;SDS011;45815;52.334;5.024;2023-12-29T08:13:42;13.20;;;2.53;;
58954;SDS011;45815;52.334;5.024;2023-12-29T08:16:08;19.85;;;3.72;;
58954;SDS011;45815;52.334;5.024;2023-12-29T08:18:34;18.55;;;3.00;;
58954;SDS011;45815;52.334;5.024;2023-12-29T08:21:00;14.23;;;2.50;;
58954;SDS011;45815;52.334;5.024;2023-12-29T08:23:25;13.30;;;3.08;;
58954;SDS011;45815;52.334;5.024;2023-12-29T08:25:52;17.63;;;3.15;;
58954;SDS011;45815;52.334;5.024;2023-12-29T08:28:17;19.90;;;3.60;;
58954;SDS011;45815;52.334;5.024;2023-12-29T08:30:43;18.80;;;3.13;;
58954;SDS011;45815;52.334;5.024;2023-12-29T08:33:11;16.08;;;2.70;;
58954;SDS011;45815;52.334;5.024;2023-12-29T08:35:37;19.48;;;3.53;;
58954;SDS011;45815;52.334;5.024;2023-12-29T08:38:03;18.13;;;2.75;;
58954;SDS011;45815;52.334;5.024;2023-12-29T08:40:29;13.68;;;2.80;;
58954;SDS011;45815;52.334;5.024;2023-12-29T08:42:54;17.10;;;2.88;;
58954;SDS011;45815;52.334;5.024;2023-12-29T08:45:20;15.98;;;2.50;;
58954;SDS011;45815;52.334;5.024;2023-12-29T08:47:45;10.55;;;2.40;;
58954;SDS011;45815;52.334;5.024;2023-12-29T08:50:11;14.68;;;2.40;;
58954;SDS011;45815;52.334;5.024;2023-12-29T08:52:36;16.63;;;2.97;;
58954;SDS011;45815;52.334;5.024;2023-12-29T08:55:02;13.57;;;2.72;;
58954;SDS011;45815;52.334;5.024;2023-12-29T08:57:27;14.30;;;2.67;;
58954;SDS011;45815;52.334;5.024;2023-12-29T08:59:53;11.98;;;2.42;;
58954;SDS011;45815;52.334;5.024;2023-12-29T09:02:18;12.50;;;2.55;;
58954;SDS011;45815;52.334;5.024;2023-12-29T09:04:43;10.70;;;2.30;;
58954;SDS011;45815;52.334;5.024;2023-12-29T09:07:09;13.00;;;2.75;;
58954;SDS011;45815;52.334;5.024;2023-12-29T09:09:34;13.45;;;2.38;;
58954;SDS011;45815;52.334;5.024;2023-12-29T09:11:59;12.32;;;2.50;;
58954;SDS011;45815;52.334;5.024;2023-12-29T09:14:25;12.70;;;2.88;;
58954;SDS011;45815;52.334;5.024;2023-12-29T09:16:50;11.30;;;2.72;;
58954;SDS011;45815;52.334;5.024;2023-12-29T09:19:16;10.93;;;2.08;;
58954;SDS011;45815;52.334;5.024;2023-12-29T09:21:41;14.57;;;2.50;;
58954;SDS011;45815;52.334;5.024;2023-12-29T09:24:06;9.10;;;1.90;;
58954;SDS011;45815;52.334;5.024;2023-12-29T09:26:32;10.52;;;2.10;;
58954;SDS011;45815;52.334;5.024;2023-12-29T09:28:58;17.10;;;3.03;;
58954;SDS011;45815;52.334;5.024;2023-12-29T09:31:24;16.65;;;3.00;;
58954;SDS011;45815;52.334;5.024;2023-12-29T09:33:49;13.43;;;2.28;;
58954;SDS011;45815;52.334;5.024;2023-12-29T09:36:14;10.35;;;3.50;;
58954;SDS011;45815;52.334;5.024;2023-12-29T09:38:40;14.40;;;2.13;;
58954;SDS011;45815;52.334;5.024;2023-12-29T09:41:09;15.05;;;2.25;;
58954;SDS011;45815;52.334;5.024;2023-12-29T09:43:38;11.45;;;2.47;;
58954;SDS011;45815;52.334;5.024;2023-12-29T09:46:05;10.93;;;2.50;;
58954;SDS011;45815;52.334;5.024;2023-12-29T09:48:33;11.77;;;2.40;;
58954;SDS011;45815;52.334;5.024;2023-12-29T09:51:01;12.07;;;2.05;;
58954;SDS011;45815;52.334;5.024;2023-12-29T09:53:26;14.73;;;2.33;;
58954;SDS011;45815;52.334;5.024;2023-12-29T09:55:53;15.40;;;3.33;;
58954;SDS011;45815;52.334;5.024;2023-12-29T09:58:21;17.25;;;2.67;;
58954;SDS011;45815;52.334;5.024;2023-12-29T10:00:48;14.25;;;2.60;;
58954;SDS011;45815;52.334;5.024;2023-12-29T10:03:15;11.70;;;2.70;;
58954;SDS011;45815;52.334;5.024;2023-12-29T10:05:40;16.42;;;2.92;;
58954;SDS011;45815;52.334;5.024;2023-12-29T10:08:06;15.43;;;2.42;;
58954;SDS011;45815;52.334;5.024;2023-12-29T10:10:35;13.63;;;2.80;;
58954;SDS011;45815;52.334;5.024;2023-12-29T10:13:03;14.18;;;2.53;;
58954;SDS011;45815;52.334;5.024;2023-12-29T10:24:19;14.63;;;2.70;;
58954;SDS011;45815;52.334;5.024;2023-12-29T10:26:46;15.27;;;3.08;;
58954;SDS011;45815;52.334;5.024;2023-12-29T10:29:12;13.85;;;2.78;;
58954;SDS011;45815;52.334;5.024;2023-12-29T10:31:38;16.40;;;2.67;;
58954;SDS011;45815;52.334;5.024;2023-12-29T10:34:24;15.15;;;3.00;;
58954;SDS011;45815;52.334;5.024;2023-12-29T10:36:53;14.63;;;2.92;;
58954;SDS011;45815;52.334;5.024;2023-12-29T10:39:20;13.48;;;3.25;;
58954;SDS011;45815;52.334;5.024;2023-12-29T10:41:46;20.20;;;3.05;;
58954;SDS011;45815;52.334;5.024;2023-12-29T10:44:11;18.90;;;3.08;;
58954;SDS011;45815;52.334;5.024;2023-12-29T10:46:37;18.67;;;2.92;;
58954;SDS011;45815;52.334;5.024;2023-12-29T10:49:09;12.60;;;2.50;;
58954;SDS011;45815;52.334;5.024;2023-12-29T10:51:35;14.25;;;2.50;;
58954;SDS011;45815;52.334;5.024;2023-12-29T10:54:02;15.50;;;4.20;;
58954;SDS011;45815;52.334;5.024;2023-12-29T10:56:28;17.38;;;3.13;;
58954;SDS011;45815;52.334;5.024;2023-12-29T10:59:04;18.52;;;4.60;;
58954;SDS011;45815;52.334;5.024;2023-12-29T11:01:31;16.33;;;4.00;;
58954;SDS011;45815;52.334;5.024;2023-12-29T11:04:02;17.27;;;3.00;;
58954;SDS011;45815;52.334;5.024;2023-12-29T11:06:29;13.67;;;2.53;;
58954;SDS011;45815;52.334;5.024;2023-12-29T11:09:04;16.77;;;3.00;;
58954;SDS011;45815;52.334;5.024;2023-12-29T11:11:30;19.20;;;3.92;;
58954;SDS011;45815;52.334;5.024;2023-12-29T11:13:57;13.38;;;3.35;;
58954;SDS011;45815;52.334;5.024;2023-12-29T11:16:23;24.92;;;3.55;;
58954;SDS011;45815;52.334;5.024;2023-12-29T11:18:49;19.05;;;3.25;;
58954;SDS011;45815;52.334;5.024;2023-12-29T11:21:19;20.60;;;3.22;;
58954;SDS011;45815;52.334;5.024;2023-12-29T11:23:47;14.05;;;3.05;;
58954;SDS011;45815;52.334;5.024;2023-12-29T11:26:12;16.77;;;3.15;;
58954;SDS011;45815;52.334;5.024;2023-12-29T11:28:38;21.55;;;3.33;;
58954;SDS011;45815;52.334;5.024;2023-12-29T11:31:04;16.77;;;2.83;;
58954;SDS011;45815;52.334;5.024;2023-12-29T11:33:31;17.52;;;3.25;;
58954;SDS011;45815;52.334;5.024;2023-12-29T11:36:09;16.85;;;3.60;;
58954;SDS011;45815;52.334;5.024;2023-12-29T11:38:47;22.25;;;3.40;;
58954;SDS011;45815;52.334;5.024;2023-12-29T11:43:55;24.58;;;3.17;;
58954;SDS011;45815;52.334;5.024;2023-12-29T11:46:38;18.73;;;3.55;;
58954;SDS011;45815;52.334;5.024;2023-12-29T11:49:04;17.75;;;3.10;;
58954;SDS011;45815;52.334;5.024;2023-12-29T11:51:35;20.95;;;4.25;;
58954;SDS011;45815;52.334;5.024;2023-12-29T11:54:03;21.10;;;3.40;;
58954;SDS011;45815;52.334;5.024;2023-12-29T11:56:30;22.05;;;3.72;;
58954;SDS011;45815;52.334;5.024;2023-12-29T11:58:57;16.00;;;2.60;;
58954;SDS011;45815;52.334;5.024;2023-12-29T12:01:37;17.38;;;3.17;;
58954;SDS011;45815;52.334;5.024;2023-12-29T12:04:03;13.27;;;3.42;;
58954;SDS011;45815;52.334;5.024;2023-12-29T12:06:37;18.60;;;3.10;;
58954;SDS011;45815;52.334;5.024;2023-12-29T12:09:15;16.40;;;3.40;;
58954;SDS011;45815;52.334;5.024;2023-12-29T12:17:25;17.63;;;2.35;;
58954;SDS011;45815;52.334;5.024;2023-12-29T12:19:53;13.50;;;2.65;;
58954;SDS011;45815;52.334;5.024;2023-12-29T12:22:41;15.95;;;3.05;;
58954;SDS011;45815;52.334;5.024;2023-12-29T12:25:09;13.57;;;2.30;;
58954;SDS011;45815;52.334;5.024;2023-12-29T12:27:37;11.75;;;2.22;;
58954;SDS011;45815;52.334;5.024;2023-12-29T12:30:04;14.70;;;2.30;;
58954;SDS011;45815;52.334;5.024;2023-12-29T12:32:30;12.45;;;3.30;;
58954;SDS011;45815;52.334;5.024;2023-12-29T12:34:56;10.65;;;2.55;;
58954;SDS011;45815;52.334;5.024;2023-12-29T12:37:22;25.80;;;3.38;;
58954;SDS011;45815;52.334;5.024;2023-12-29T12:39:51;13.65;;;2.70;;
58954;SDS011;45815;52.334;5.024;2023-12-29T12:42:18;19.63;;;2.95;;
58954;SDS011;45815;52.334;5.024;2023-12-29T12:45:06;19.10;;;2.72;;
58954;SDS011;45815;52.334;5.024;2023-12-29T12:47:42;10.82;;;2.60;;
58954;SDS011;45815;52.334;5.024;2023-12-29T12:50:11;10.98;;;2.70;;
58954;SDS011;45815;52.334;5.024;2023-12-29T12:52:37;13.38;;;2.58;;
58954;SDS011;45815;52.334;5.024;2023-12-29T12:55:04;25.95;;;2.50;;
58954;SDS011;45815;52.334;5.024;2023-12-29T12:57:32;14.38;;;2.45;;
58954;SDS011;45815;52.334;5.024;2023-12-29T12:59:59;10.77;;;2.30;;
58954;SDS011;45815;52.334;5.024;2023-12-29T13:02:26;13.40;;;3.22;;
58954;SDS011;45815;52.334;5.024;2023-12-29T13:04:52;13.73;;;2.22;;
58954;SDS011;45815;52.334;5.024;2023-12-29T13:07:18;15.30;;;3.08;;
58954;SDS011;45815;52.334;5.024;2023-12-29T13:09:47;11.75;;;2.95;;
58954;SDS011;45815;52.334;5.024;2023-12-29T13:12:15;13.65;;;2.47;;
58954;SDS011;45815;52.334;5.024;2023-12-29T13:14:44;15.98;;;2.92;;
58954;SDS011;45815;52.334;5.024;2023-12-29T13:17:14;14.98;;;2.55;;
58954;SDS011;45815;52.334;5.024;2023-12-29T13:19:41;10.80;;;2.00;;
58954;SDS011;45815;52.334;5.024;2023-12-29T13:22:09;14.68;;;2.65;;
58954;SDS011;45815;52.334;5.024;2023-12-29T13:24:43;13.02;;;2.85;;
58954;SDS011;45815;52.334;5.024;2023-12-29T13:27:10;14.77;;;2.33;;
58954;SDS011;45815;52.334;5.024;2023-12-29T13:29:37;12.88;;;2.63;;
58954;SDS011;45815;52.334;5.024;2023-12-29T13:32:05;12.65;;;2.17;;
58954;SDS011;45815;52.334;5.024;2023-12-29T13:37:30;14.55;;;2.97;;
58954;SDS011;45815;52.334;5.024;2023-12-29T13:40:24;9.57;;;2.20;;
58954;SDS011;45815;52.334;5.024;2023-12-29T13:42:55;14.07;;;2.83;;
58954;SDS011;45815;52.334;5.024;2023-12-29T13:45:24;17.30;;;2.58;;
58954;SDS011;45815;52.334;5.024;2023-12-29T13:47:51;10.02;;;2.22;;
58954;SDS011;45815;52.334;5.024;2023-12-29T13:50:18;14.95;;;2.38;;
58954;SDS011;45815;52.334;5.024;2023-12-29T13:52:44;12.20;;;2.42;;
58954;SDS011;45815;52.334;5.024;2023-12-29T13:55:11;13.95;;;2.58;;
58954;SDS011;45815;52.334;5.024;2023-12-29T13:57:36;13.48;;;2.10;;
58954;SDS011;45815;52.334;5.024;2023-12-29T14:00:18;11.85;;;1.95;;
58954;SDS011;45815;52.334;5.024;2023-12-29T14:05:23;10.65;;;2.65;;
58954;SDS011;45815;52.334;5.024;2023-12-29T14:07:53;11.88;;;2.30;;
58954;SDS011;45815;52.334;5.024;2023-12-29T14:10:40;18.48;;;2.25;;
58954;SDS011;45815;52.334;5.024;2023-12-29T14:15:39;15.07;;;2.55;;
58954;SDS011;45815;52.334;5.024;2023-12-29T14:18:09;9.45;;;1.88;;
58954;SDS011;45815;52.334;5.024;2023-12-29T14:20:46;12.35;;;2.78;;
58954;SDS011;45815;52.334;5.024;2023-12-29T14:23:11;12.18;;;2.42;;
58954;SDS011;45815;52.334;5.024;2023-12-29T14:25:37;14.07;;;1.85;;
58954;SDS011;45815;52.334;5.024;2023-12-29T14:28:03;15.02;;;2.53;;
58954;SDS011;45815;52.334;5.024;2023-12-29T14:30:29;13.13;;;2.40;;
58954;SDS011;45815;52.334;5.024;2023-12-29T14:32:59;9.27;;;2.10;;
58954;SDS011;45815;52.334;5.024;2023-12-29T14:35:25;11.23;;;1.73;;
58954;SDS011;45815;52.334;5.024;2023-12-29T14:37:50;12.52;;;1.88;;
58954;SDS011;45815;52.334;5.024;2023-12-29T14:40:16;11.27;;;2.05;;
58954;SDS011;45815;52.334;5.024;2023-12-29T14:42:41;12.45;;;1.75;;
58954;SDS011;45815;52.334;5.024;2023-12-29T14:45:07;12.57;;;2.20;;
58954;SDS011;45815;52.334;5.024;2023-12-29T14:47:34;9.05;;;1.92;;
58954;SDS011;45815;52.334;5.024;2023-12-29T14:50:00;8.32;;;1.73;;
58954;SDS011;45815;52.334;5.024;2023-12-29T14:52:25;10.93;;;1.50;;
58954;SDS011;45815;52.334;5.024;2023-12-29T14:54:51;12.57;;;1.80;;
58954;SDS011;45815;52.334;5.024;2023-12-29T14:57:17;7.55;;;1.70;;
58954;SDS011;45815;52.334;5.024;2023-12-29T14:59:42;7.60;;;1.45;;
58954;SDS011;45815;52.334;5.024;2023-12-29T15:02:07;9.95;;;1.92;;